sensor_id;sensor_type;location;lat;lon;timestamp;temperature;humidity
38428;DHT22;24211;49.980;19.776;2023-05-14T00:01:34;12.50;93.50
38428;DHT22;24211;49.980;19.776;2023-05-14T00:04:02;12.50;93.60
38428;DHT22;24211;49.980;19.776;2023-05-14T00:06:30;12.50;93.60
38428;DHT22;24211;49.980;19.776;2023-05-14T00:08:57;12.40;93.80
38428;DHT22;24211;49.980;19.776;2023-05-14T00:11:24;12.40;93.80
38428;DHT22;24211;49.980;19.776;2023-05-14T00:13:51;12.40;93.80
38428;DHT22;24211;49.980;19.776;2023-05-14T00:16:19;12.30;93.80
38428;DHT22;24211;49.980;19.776;2023-05-14T00:18:46;12.30;93.80
38428;DHT22;24211;49.980;19.776;2023-05-14T00:21:13;12.30;93.80
38428;DHT22;24211;49.980;19.776;2023-05-14T00:23:40;12.20;93.80
38428;DHT22;24211;49.980;19.776;2023-05-14T00:26:07;12.20;93.90
38428;DHT22;24211;49.980;19.776;2023-05-14T00:28:34;12.20;94.00
38428;DHT22;24211;49.980;19.776;2023-05-14T00:31:01;12.20;94.00
38428;DHT22;24211;49.980;19.776;2023-05-14T00:33:29;12.10;94.00
38428;DHT22;24211;49.980;19.776;2023-05-14T00:35:57;12.10;94.10
38428;DHT22;24211;49.980;19.776;2023-05-14T00:38:24;12.10;94.10
38428;DHT22;24211;49.980;19.776;2023-05-14T00:40:53;12.10;94.20
38428;DHT22;24211;49.980;19.776;2023-05-14T00:43:21;12.00;94.20
38428;DHT22;24211;49.980;19.776;2023-05-14T00:45:50;12.00;94.30
38428;DHT22;24211;49.980;19.776;2023-05-14T00:48:19;11.90;94.40
38428;DHT22;24211;49.980;19.776;2023-05-14T00:50:48;11.90;94.40
38428;DHT22;24211;49.980;19.776;2023-05-14T00:53:20;11.90;94.60
38428;DHT22;24211;49.980;19.776;2023-05-14T00:55:48;11.90;94.70
38428;DHT22;24211;49.980;19.776;2023-05-14T00:58:16;11.90;94.80
38428;DHT22;24211;49.980;19.776;2023-05-14T01:00:45;11.80;94.90
38428;DHT22;24211;49.980;19.776;2023-05-14T01:03:12;11.70;95.10
38428;DHT22;24211;49.980;19.776;2023-05-14T01:06:02;11.70;95.30
38428;DHT22;24211;49.980;19.776;2023-05-14T01:09:02;11.60;95.60
38428;DHT22;24211;49.980;19.776;2023-05-14T01:11:55;11.50;95.90
38428;DHT22;24211;49.980;19.776;2023-05-14T01:14:33;11.50;96.10
38428;DHT22;24211;49.980;19.776;2023-05-14T01:17:10;11.50;96.10
38428;DHT22;24211;49.980;19.776;2023-05-14T01:19:42;11.40;96.20
38428;DHT22;24211;49.980;19.776;2023-05-14T01:22:11;11.40;96.40
38428;DHT22;24211;49.980;19.776;2023-05-14T01:24:39;11.30;96.60
38428;DHT22;24211;49.980;19.776;2023-05-14T01:27:29;11.30;96.70
38428;DHT22;24211;49.980;19.776;2023-05-14T01:32:37;11.30;97.10
38428;DHT22;24211;49.980;19.776;2023-05-14T01:35:06;11.20;97.00
38428;DHT22;24211;49.980;19.776;2023-05-14T01:37:35;11.20;96.90
38428;DHT22;24211;49.980;19.776;2023-05-14T01:40:05;11.20;96.80
38428;DHT22;24211;49.980;19.776;2023-05-14T01:42:34;11.10;97.00
38428;DHT22;24211;49.980;19.776;2023-05-14T01:45:02;11.10;97.00
38428;DHT22;24211;49.980;19.776;2023-05-14T01:47:29;11.00;97.10
38428;DHT22;24211;49.980;19.776;2023-05-14T01:49:56;11.00;97.10
38428;DHT22;24211;49.980;19.776;2023-05-14T01:52:23;11.00;97.20
38428;DHT22;24211;49.980;19.776;2023-05-14T01:54:50;11.00;97.20
38428;DHT22;24211;49.980;19.776;2023-05-14T01:57:18;10.90;97.10
38428;DHT22;24211;49.980;19.776;2023-05-14T01:59:45;10.90;97.20
38428;DHT22;24211;49.980;19.776;2023-05-14T02:02:12;10.90;97.30
38428;DHT22;24211;49.980;19.776;2023-05-14T02:04:40;10.80;97.40
38428;DHT22;24211;49.980;19.776;2023-05-14T02:07:08;10.80;97.50
38428;DHT22;24211;49.980;19.776;2023-05-14T02:09:35;10.70;97.50
38428;DHT22;24211;49.980;19.776;2023-05-14T02:12:02;10.70;97.40
38428;DHT22;24211;49.980;19.776;2023-05-14T02:14:29;10.70;97.50
38428;DHT22;24211;49.980;19.776;2023-05-14T02:16:57;10.60;97.50
38428;DHT22;24211;49.980;19.776;2023-05-14T02:19:24;10.70;97.60
38428;DHT22;24211;49.980;19.776;2023-05-14T02:21:51;10.60;97.60
38428;DHT22;24211;49.980;19.776;2023-05-14T02:24:18;10.60;97.70
38428;DHT22;24211;49.980;19.776;2023-05-14T02:26:45;10.50;97.70
38428;DHT22;24211;49.980;19.776;2023-05-14T02:29:12;10.50;97.80
38428;DHT22;24211;49.980;19.776;2023-05-14T02:31:40;10.40;98.00
38428;DHT22;24211;49.980;19.776;2023-05-14T02:34:07;10.40;98.20
38428;DHT22;24211;49.980;19.776;2023-05-14T02:36:34;10.30;98.20
38428;DHT22;24211;49.980;19.776;2023-05-14T02:39:01;10.30;98.20
38428;DHT22;24211;49.980;19.776;2023-05-14T02:41:29;10.30;98.20
38428;DHT22;24211;49.980;19.776;2023-05-14T02:43:56;10.30;98.20
38428;DHT22;24211;49.980;19.776;2023-05-14T02:46:23;10.20;98.20
38428;DHT22;24211;49.980;19.776;2023-05-14T02:48:50;10.20;98.20
38428;DHT22;24211;49.980;19.776;2023-05-14T02:51:19;10.20;98.40
38428;DHT22;24211;49.980;19.776;2023-05-14T02:53:46;10.20;98.40
38428;DHT22;24211;49.980;19.776;2023-05-14T02:56:14;10.10;98.30
38428;DHT22;24211;49.980;19.776;2023-05-14T02:58:41;10.10;98.40
38428;DHT22;24211;49.980;19.776;2023-05-14T03:01:08;10.10;98.70
38428;DHT22;24211;49.980;19.776;2023-05-14T03:03:36;10.00;98.60
38428;DHT22;24211;49.980;19.776;2023-05-14T03:06:04;10.00;98.60
38428;DHT22;24211;49.980;19.776;2023-05-14T03:08:31;9.90;98.60
38428;DHT22;24211;49.980;19.776;2023-05-14T03:10:59;10.00;98.60
38428;DHT22;24211;49.980;19.776;2023-05-14T03:13:26;9.90;98.70
38428;DHT22;24211;49.980;19.776;2023-05-14T03:15:53;9.90;98.70
38428;DHT22;24211;49.980;19.776;2023-05-14T03:18:21;9.90;98.70
38428;DHT22;24211;49.980;19.776;2023-05-14T03:20:49;9.80;98.70
38428;DHT22;24211;49.980;19.776;2023-05-14T03:23:16;9.90;98.80
38428;DHT22;24211;49.980;19.776;2023-05-14T03:25:44;9.80;98.70
38428;DHT22;24211;49.980;19.776;2023-05-14T03:28:11;9.80;98.80
38428;DHT22;24211;49.980;19.776;2023-05-14T03:30:38;9.80;98.80
38428;DHT22;24211;49.980;19.776;2023-05-14T03:33:05;9.80;98.80
38428;DHT22;24211;49.980;19.776;2023-05-14T03:35:33;9.80;98.90
38428;DHT22;24211;49.980;19.776;2023-05-14T03:38:00;9.80;99.00
38428;DHT22;24211;49.980;19.776;2023-05-14T03:40:27;9.80;99.20
38428;DHT22;24211;49.980;19.776;2023-05-14T03:42:54;9.80;99.50
38428;DHT22;24211;49.980;19.776;2023-05-14T03:45:22;9.80;99.80
38428;DHT22;24211;49.980;19.776;2023-05-14T03:47:49;9.80;99.90
38428;DHT22;24211;49.980;19.776;2023-05-14T03:50:17;9.80;99.90
38428;DHT22;24211;49.980;19.776;2023-05-14T03:52:44;9.90;99.90
38428;DHT22;24211;49.980;19.776;2023-05-14T03:55:12;9.90;99.90
38428;DHT22;24211;49.980;19.776;2023-05-14T03:57:39;9.90;99.90
38428;DHT22;24211;49.980;19.776;2023-05-14T04:00:07;9.90;99.90
38428;DHT22;24211;49.980;19.776;2023-05-14T04:02:42;10.00;99.90
38428;DHT22;24211;49.980;19.776;2023-05-14T04:05:10;10.00;99.90
38428;DHT22;24211;49.980;19.776;2023-05-14T04:07:37;10.10;99.90
38428;DHT22;24211;49.980;19.776;2023-05-14T04:10:05;10.10;99.90
38428;DHT22;24211;49.980;19.776;2023-05-14T04:12:34;10.20;99.90
38428;DHT22;24211;49.980;19.776;2023-05-14T04:15:03;10.20;99.90
38428;DHT22;24211;49.980;19.776;2023-05-14T04:17:31;10.30;99.90
38428;DHT22;24211;49.980;19.776;2023-05-14T04:20:01;10.40;99.90
38428;DHT22;24211;49.980;19.776;2023-05-14T04:22:30;10.50;99.90
38428;DHT22;24211;49.980;19.776;2023-05-14T04:24:58;10.60;99.90
38428;DHT22;24211;49.980;19.776;2023-05-14T04:27:24;10.70;99.90
38428;DHT22;24211;49.980;19.776;2023-05-14T04:29:52;10.80;99.90
38428;DHT22;24211;49.980;19.776;2023-05-14T04:32:19;10.90;99.90
38428;DHT22;24211;49.980;19.776;2023-05-14T04:34:47;11.00;99.90
38428;DHT22;24211;49.980;19.776;2023-05-14T04:37:14;11.10;99.90
38428;DHT22;24211;49.980;19.776;2023-05-14T04:39:41;11.20;99.90
38428;DHT22;24211;49.980;19.776;2023-05-14T04:42:09;11.40;99.90
38428;DHT22;24211;49.980;19.776;2023-05-14T04:44:36;11.50;99.90
38428;DHT22;24211;49.980;19.776;2023-05-14T04:47:03;11.60;99.90
38428;DHT22;24211;49.980;19.776;2023-05-14T04:49:31;11.70;99.90
38428;DHT22;24211;49.980;19.776;2023-05-14T04:52:00;11.90;99.90
38428;DHT22;24211;49.980;19.776;2023-05-14T04:54:27;12.00;99.90
38428;DHT22;24211;49.980;19.776;2023-05-14T04:56:54;12.10;99.90
38428;DHT22;24211;49.980;19.776;2023-05-14T04:59:22;12.30;99.90
38428;DHT22;24211;49.980;19.776;2023-05-14T05:01:49;12.40;99.90
38428;DHT22;24211;49.980;19.776;2023-05-14T05:04:17;12.50;99.90
38428;DHT22;24211;49.980;19.776;2023-05-14T05:06:45;12.60;99.90
38428;DHT22;24211;49.980;19.776;2023-05-14T05:09:13;12.70;99.90
38428;DHT22;24211;49.980;19.776;2023-05-14T05:11:40;12.90;99.90
38428;DHT22;24211;49.980;19.776;2023-05-14T05:14:07;13.20;99.90
38428;DHT22;24211;49.980;19.776;2023-05-14T05:16:34;13.40;99.90
38428;DHT22;24211;49.980;19.776;2023-05-14T05:19:02;13.50;99.90
38428;DHT22;24211;49.980;19.776;2023-05-14T05:21:30;13.70;99.90
38428;DHT22;24211;49.980;19.776;2023-05-14T05:23:57;13.80;99.90
38428;DHT22;24211;49.980;19.776;2023-05-14T05:26:25;14.10;99.90
38428;DHT22;24211;49.980;19.776;2023-05-14T05:28:53;14.50;99.90
38428;DHT22;24211;49.980;19.776;2023-05-14T05:31:20;14.80;99.90
38428;DHT22;24211;49.980;19.776;2023-05-14T05:33:47;15.20;99.90
38428;DHT22;24211;49.980;19.776;2023-05-14T05:36:14;15.50;99.90
38428;DHT22;24211;49.980;19.776;2023-05-14T05:38:41;15.80;99.90
38428;DHT22;24211;49.980;19.776;2023-05-14T05:41:08;16.20;99.90
38428;DHT22;24211;49.980;19.776;2023-05-14T05:43:36;16.50;99.90
38428;DHT22;24211;49.980;19.776;2023-05-14T05:46:03;16.80;99.90
38428;DHT22;24211;49.980;19.776;2023-05-14T05:48:30;17.10;99.90
38428;DHT22;24211;49.980;19.776;2023-05-14T05:50:57;17.30;99.70
38428;DHT22;24211;49.980;19.776;2023-05-14T05:53:24;17.50;99.20
38428;DHT22;24211;49.980;19.776;2023-05-14T05:55:51;17.70;98.90
38428;DHT22;24211;49.980;19.776;2023-05-14T05:58:19;17.90;98.50
38428;DHT22;24211;49.980;19.776;2023-05-14T06:00:46;18.10;98.20
38428;DHT22;24211;49.980;19.776;2023-05-14T06:03:13;18.40;98.10
38428;DHT22;24211;49.980;19.776;2023-05-14T06:05:40;18.60;97.80
38428;DHT22;24211;49.980;19.776;2023-05-14T06:08:08;18.80;97.60
38428;DHT22;24211;49.980;19.776;2023-05-14T06:10:35;19.00;97.10
38428;DHT22;24211;49.980;19.776;2023-05-14T06:13:03;19.30;97.20
38428;DHT22;24211;49.980;19.776;2023-05-14T06:15:30;19.60;96.80
38428;DHT22;24211;49.980;19.776;2023-05-14T06:17:57;19.80;96.50
38428;DHT22;24211;49.980;19.776;2023-05-14T06:20:24;20.00;96.30
38428;DHT22;24211;49.980;19.776;2023-05-14T06:22:52;20.20;96.20
38428;DHT22;24211;49.980;19.776;2023-05-14T06:25:19;20.40;96.00
38428;DHT22;24211;49.980;19.776;2023-05-14T06:27:47;20.70;95.60
38428;DHT22;24211;49.980;19.776;2023-05-14T06:30:14;20.90;95.20
38428;DHT22;24211;49.980;19.776;2023-05-14T06:32:42;21.10;95.00
38428;DHT22;24211;49.980;19.776;2023-05-14T06:35:09;21.30;95.00
38428;DHT22;24211;49.980;19.776;2023-05-14T06:37:36;21.50;94.60
38428;DHT22;24211;49.980;19.776;2023-05-14T06:40:04;21.50;94.20
38428;DHT22;24211;49.980;19.776;2023-05-14T06:42:32;21.80;94.30
38428;DHT22;24211;49.980;19.776;2023-05-14T06:44:59;22.00;93.90
38428;DHT22;24211;49.980;19.776;2023-05-14T06:47:27;22.30;93.80
38428;DHT22;24211;49.980;19.776;2023-05-14T06:49:54;22.40;93.50
38428;DHT22;24211;49.980;19.776;2023-05-14T06:52:24;22.50;93.50
38428;DHT22;24211;49.980;19.776;2023-05-14T06:54:51;22.80;93.60
38428;DHT22;24211;49.980;19.776;2023-05-14T06:57:21;23.00;93.10
38428;DHT22;24211;49.980;19.776;2023-05-14T06:59:48;23.20;92.50
38428;DHT22;24211;49.980;19.776;2023-05-14T07:02:15;23.20;92.80
38428;DHT22;24211;49.980;19.776;2023-05-14T07:04:42;23.40;92.60
38428;DHT22;24211;49.980;19.776;2023-05-14T07:07:09;23.40;92.40
38428;DHT22;24211;49.980;19.776;2023-05-14T07:09:40;23.50;92.00
38428;DHT22;24211;49.980;19.776;2023-05-14T07:12:08;23.60;92.10
38428;DHT22;24211;49.980;19.776;2023-05-14T07:14:35;23.50;92.10
38428;DHT22;24211;49.980;19.776;2023-05-14T07:17:02;23.50;92.10
38428;DHT22;24211;49.980;19.776;2023-05-14T07:19:30;23.50;92.30
38428;DHT22;24211;49.980;19.776;2023-05-14T07:21:57;23.60;92.30
38428;DHT22;24211;49.980;19.776;2023-05-14T07:24:24;23.80;91.90
38428;DHT22;24211;49.980;19.776;2023-05-14T07:26:51;24.10;92.00
38428;DHT22;24211;49.980;19.776;2023-05-14T07:29:21;24.30;91.70
38428;DHT22;24211;49.980;19.776;2023-05-14T07:31:48;24.60;91.50
38428;DHT22;24211;49.980;19.776;2023-05-14T07:34:15;24.70;91.30
38428;DHT22;24211;49.980;19.776;2023-05-14T07:36:42;24.60;91.10
38428;DHT22;24211;49.980;19.776;2023-05-14T07:39:09;24.70;90.50
38428;DHT22;24211;49.980;19.776;2023-05-14T07:41:37;24.80;90.30
38428;DHT22;24211;49.980;19.776;2023-05-14T07:44:04;25.10;90.40
38428;DHT22;24211;49.980;19.776;2023-05-14T07:46:31;25.20;90.20
38428;DHT22;24211;49.980;19.776;2023-05-14T07:48:58;25.30;90.00
38428;DHT22;24211;49.980;19.776;2023-05-14T07:51:25;25.50;90.10
38428;DHT22;24211;49.980;19.776;2023-05-14T07:53:54;25.50;90.00
38428;DHT22;24211;49.980;19.776;2023-05-14T07:56:22;25.50;89.30
38428;DHT22;24211;49.980;19.776;2023-05-14T07:58:49;25.70;89.30
38428;DHT22;24211;49.980;19.776;2023-05-14T08:01:17;25.70;88.00
38428;DHT22;24211;49.980;19.776;2023-05-14T08:03:44;25.80;88.90
38428;DHT22;24211;49.980;19.776;2023-05-14T08:06:12;25.80;88.40
38428;DHT22;24211;49.980;19.776;2023-05-14T08:08:39;26.10;88.50
38428;DHT22;24211;49.980;19.776;2023-05-14T08:11:06;26.20;88.20
38428;DHT22;24211;49.980;19.776;2023-05-14T08:13:34;26.20;87.10
38428;DHT22;24211;49.980;19.776;2023-05-14T08:16:01;26.30;87.10
38428;DHT22;24211;49.980;19.776;2023-05-14T08:18:28;26.40;87.20
38428;DHT22;24211;49.980;19.776;2023-05-14T08:20:55;26.60;87.60
38428;DHT22;24211;49.980;19.776;2023-05-14T08:23:23;26.90;86.20
38428;DHT22;24211;49.980;19.776;2023-05-14T08:25:50;26.90;86.40
38428;DHT22;24211;49.980;19.776;2023-05-14T08:28:17;27.10;85.00
38428;DHT22;24211;49.980;19.776;2023-05-14T08:30:44;27.00;85.10
38428;DHT22;24211;49.980;19.776;2023-05-14T08:33:11;26.90;84.00
38428;DHT22;24211;49.980;19.776;2023-05-14T08:35:38;26.80;84.90
38428;DHT22;24211;49.980;19.776;2023-05-14T08:38:06;27.10;85.30
38428;DHT22;24211;49.980;19.776;2023-05-14T08:40:33;27.60;84.20
38428;DHT22;24211;49.980;19.776;2023-05-14T08:43:01;26.70;81.10
38428;DHT22;24211;49.980;19.776;2023-05-14T08:45:30;27.30;84.50
38428;DHT22;24211;49.980;19.776;2023-05-14T08:48:02;27.40;84.80
38428;DHT22;24211;49.980;19.776;2023-05-14T08:50:35;27.40;83.10
38428;DHT22;24211;49.980;19.776;2023-05-14T08:53:02;27.30;83.70
38428;DHT22;24211;49.980;19.776;2023-05-14T08:55:30;27.80;82.90
38428;DHT22;24211;49.980;19.776;2023-05-14T08:57:59;28.10;83.50
38428;DHT22;24211;49.980;19.776;2023-05-14T09:00:30;27.60;82.80
38428;DHT22;24211;49.980;19.776;2023-05-14T09:02:58;28.30;82.10
38428;DHT22;24211;49.980;19.776;2023-05-14T09:05:26;27.60;79.20
38428;DHT22;24211;49.980;19.776;2023-05-14T09:07:54;27.60;81.50
38428;DHT22;24211;49.980;19.776;2023-05-14T09:10:21;28.10;82.40
38428;DHT22;24211;49.980;19.776;2023-05-14T09:12:49;28.10;81.90
38428;DHT22;24211;49.980;19.776;2023-05-14T09:15:17;28.10;81.40
38428;DHT22;24211;49.980;19.776;2023-05-14T09:17:45;28.50;81.60
38428;DHT22;24211;49.980;19.776;2023-05-14T09:20:14;28.30;80.60
38428;DHT22;24211;49.980;19.776;2023-05-14T09:22:42;28.00;79.00
38428;DHT22;24211;49.980;19.776;2023-05-14T09:25:10;28.20;79.90
38428;DHT22;24211;49.980;19.776;2023-05-14T09:27:38;27.80;78.80
38428;DHT22;24211;49.980;19.776;2023-05-14T09:30:10;27.50;78.40
38428;DHT22;24211;49.980;19.776;2023-05-14T09:32:40;27.00;80.00
38428;DHT22;24211;49.980;19.776;2023-05-14T09:35:17;26.70;80.20
38428;DHT22;24211;49.980;19.776;2023-05-14T09:37:54;27.40;81.40
38428;DHT22;24211;49.980;19.776;2023-05-14T09:40:22;26.80;80.30
38428;DHT22;24211;49.980;19.776;2023-05-14T09:42:51;26.90;79.10
38428;DHT22;24211;49.980;19.776;2023-05-14T09:45:18;27.70;80.70
38428;DHT22;24211;49.980;19.776;2023-05-14T09:47:45;28.00;79.10
38428;DHT22;24211;49.980;19.776;2023-05-14T09:50:12;26.80;80.00
38428;DHT22;24211;49.980;19.776;2023-05-14T09:52:41;27.90;80.00
38428;DHT22;24211;49.980;19.776;2023-05-14T09:55:08;28.40;80.10
38428;DHT22;24211;49.980;19.776;2023-05-14T09:57:36;28.50;79.30
38428;DHT22;24211;49.980;19.776;2023-05-14T10:00:03;28.60;79.70
38428;DHT22;24211;49.980;19.776;2023-05-14T10:02:35;28.40;76.10
38428;DHT22;24211;49.980;19.776;2023-05-14T10:05:06;28.60;79.70
38428;DHT22;24211;49.980;19.776;2023-05-14T10:07:43;28.80;79.40
38428;DHT22;24211;49.980;19.776;2023-05-14T10:10:20;28.20;76.20
38428;DHT22;24211;49.980;19.776;2023-05-14T10:12:55;27.80;78.50
38428;DHT22;24211;49.980;19.776;2023-05-14T10:15:31;28.40;76.00
38428;DHT22;24211;49.980;19.776;2023-05-14T10:18:10;28.60;79.20
38428;DHT22;24211;49.980;19.776;2023-05-14T10:20:42;28.40;78.70
38428;DHT22;24211;49.980;19.776;2023-05-14T10:23:13;28.70;78.40
38428;DHT22;24211;49.980;19.776;2023-05-14T10:25:40;28.20;77.80
38428;DHT22;24211;49.980;19.776;2023-05-14T10:28:08;27.80;76.70
38428;DHT22;24211;49.980;19.776;2023-05-14T10:30:43;27.80;75.40
38428;DHT22;24211;49.980;19.776;2023-05-14T10:33:13;27.50;79.40
38428;DHT22;24211;49.980;19.776;2023-05-14T10:36:03;27.50;75.30
38428;DHT22;24211;49.980;19.776;2023-05-14T10:38:34;27.10;76.20
38428;DHT22;24211;49.980;19.776;2023-05-14T10:41:03;28.20;78.00
38428;DHT22;24211;49.980;19.776;2023-05-14T10:43:39;28.50;77.50
38428;DHT22;24211;49.980;19.776;2023-05-14T10:46:08;28.00;77.90
38428;DHT22;24211;49.980;19.776;2023-05-14T10:48:39;27.60;78.50
38428;DHT22;24211;49.980;19.776;2023-05-14T10:51:09;28.40;78.60
38428;DHT22;24211;49.980;19.776;2023-05-14T10:53:41;28.20;78.40
38428;DHT22;24211;49.980;19.776;2023-05-14T10:56:13;27.50;76.10
38428;DHT22;24211;49.980;19.776;2023-05-14T10:58:44;27.10;78.60
38428;DHT22;24211;49.980;19.776;2023-05-14T11:01:12;27.20;79.50
38428;DHT22;24211;49.980;19.776;2023-05-14T11:03:43;27.50;78.30
38428;DHT22;24211;49.980;19.776;2023-05-14T11:06:14;27.20;77.50
38428;DHT22;24211;49.980;19.776;2023-05-14T11:08:42;26.80;77.70
38428;DHT22;24211;49.980;19.776;2023-05-14T11:11:12;26.70;78.80
38428;DHT22;24211;49.980;19.776;2023-05-14T11:13:40;27.50;79.60
38428;DHT22;24211;49.980;19.776;2023-05-14T11:16:08;27.50;78.40
38428;DHT22;24211;49.980;19.776;2023-05-14T11:18:39;26.60;77.20
38428;DHT22;24211;49.980;19.776;2023-05-14T11:21:07;26.80;79.70
38428;DHT22;24211;49.980;19.776;2023-05-14T11:23:35;28.00;78.70
38428;DHT22;24211;49.980;19.776;2023-05-14T11:26:01;28.00;77.60
38428;DHT22;24211;49.980;19.776;2023-05-14T11:28:29;26.80;80.00
38428;DHT22;24211;49.980;19.776;2023-05-14T11:30:56;26.70;77.90
38428;DHT22;24211;49.980;19.776;2023-05-14T11:33:26;26.60;80.30
38428;DHT22;24211;49.980;19.776;2023-05-14T11:35:54;27.70;79.30
38428;DHT22;24211;49.980;19.776;2023-05-14T11:38:22;27.30;77.50
38428;DHT22;24211;49.980;19.776;2023-05-14T11:40:54;26.50;76.70
38428;DHT22;24211;49.980;19.776;2023-05-14T11:43:23;26.20;78.80
38428;DHT22;24211;49.980;19.776;2023-05-14T11:45:55;26.00;78.40
38428;DHT22;24211;49.980;19.776;2023-05-14T11:48:23;25.30;78.40
38428;DHT22;24211;49.980;19.776;2023-05-14T11:50:51;25.90;81.20
38428;DHT22;24211;49.980;19.776;2023-05-14T11:53:23;25.60;80.20
38428;DHT22;24211;49.980;19.776;2023-05-14T11:55:55;25.80;81.40
38428;DHT22;24211;49.980;19.776;2023-05-14T11:58:25;25.70;79.20
38428;DHT22;24211;49.980;19.776;2023-05-14T12:00:54;25.60;79.20
38428;DHT22;24211;49.980;19.776;2023-05-14T12:03:22;25.60;80.80
38428;DHT22;24211;49.980;19.776;2023-05-14T12:06:00;25.80;78.80
38428;DHT22;24211;49.980;19.776;2023-05-14T12:08:29;25.60;81.10
38428;DHT22;24211;49.980;19.776;2023-05-14T12:10:58;25.50;80.60
38428;DHT22;24211;49.980;19.776;2023-05-14T12:13:29;25.70;78.40
38428;DHT22;24211;49.980;19.776;2023-05-14T12:15:59;25.50;78.00
38428;DHT22;24211;49.980;19.776;2023-05-14T12:18:29;25.60;80.20
38428;DHT22;24211;49.980;19.776;2023-05-14T12:21:02;25.60;78.30
38428;DHT22;24211;49.980;19.776;2023-05-14T12:23:31;24.70;80.10
38428;DHT22;24211;49.980;19.776;2023-05-14T12:26:06;24.50;80.80
38428;DHT22;24211;49.980;19.776;2023-05-14T12:28:38;25.00;81.00
38428;DHT22;24211;49.980;19.776;2023-05-14T12:31:09;26.20;79.60
38428;DHT22;24211;49.980;19.776;2023-05-14T12:33:36;26.20;78.40
38428;DHT22;24211;49.980;19.776;2023-05-14T12:36:03;26.50;79.10
38428;DHT22;24211;49.980;19.776;2023-05-14T12:38:58;26.40;78.80
38428;DHT22;24211;49.980;19.776;2023-05-14T12:41:27;25.50;78.80
38428;DHT22;24211;49.980;19.776;2023-05-14T12:43:59;25.40;79.60
38428;DHT22;24211;49.980;19.776;2023-05-14T12:46:26;25.40;81.10
38428;DHT22;24211;49.980;19.776;2023-05-14T12:48:54;26.50;80.80
38428;DHT22;24211;49.980;19.776;2023-05-14T12:51:22;25.80;77.60
38428;DHT22;24211;49.980;19.776;2023-05-14T12:53:50;25.30;80.00
38428;DHT22;24211;49.980;19.776;2023-05-14T12:56:17;25.50;80.20
38428;DHT22;24211;49.980;19.776;2023-05-14T12:58:46;25.50;78.90
38428;DHT22;24211;49.980;19.776;2023-05-14T13:01:13;25.20;79.90
38428;DHT22;24211;49.980;19.776;2023-05-14T13:03:40;25.90;81.10
38428;DHT22;24211;49.980;19.776;2023-05-14T13:06:08;25.30;77.70
38428;DHT22;24211;49.980;19.776;2023-05-14T13:08:35;25.10;79.20
38428;DHT22;24211;49.980;19.776;2023-05-14T13:11:02;24.80;78.60
38428;DHT22;24211;49.980;19.776;2023-05-14T13:13:29;25.60;78.60
38428;DHT22;24211;49.980;19.776;2023-05-14T13:15:56;25.00;78.40
38428;DHT22;24211;49.980;19.776;2023-05-14T13:18:24;24.50;79.40
38428;DHT22;24211;49.980;19.776;2023-05-14T13:20:53;23.90;80.20
38428;DHT22;24211;49.980;19.776;2023-05-14T13:23:20;24.40;81.80
38428;DHT22;24211;49.980;19.776;2023-05-14T13:25:47;25.00;81.30
38428;DHT22;24211;49.980;19.776;2023-05-14T13:28:16;24.80;80.70
38428;DHT22;24211;49.980;19.776;2023-05-14T13:31:02;24.20;81.50
38428;DHT22;24211;49.980;19.776;2023-05-14T13:33:34;24.20;82.20
38428;DHT22;24211;49.980;19.776;2023-05-14T13:36:07;24.50;81.40
38428;DHT22;24211;49.980;19.776;2023-05-14T13:38:35;24.00;81.10
38428;DHT22;24211;49.980;19.776;2023-05-14T13:41:02;24.00;82.20
38428;DHT22;24211;49.980;19.776;2023-05-14T13:43:31;23.90;81.90
38428;DHT22;24211;49.980;19.776;2023-05-14T13:45:59;24.00;81.30
38428;DHT22;24211;49.980;19.776;2023-05-14T13:48:27;24.20;80.60
38428;DHT22;24211;49.980;19.776;2023-05-14T13:50:54;23.60;80.50
38428;DHT22;24211;49.980;19.776;2023-05-14T13:53:23;23.30;81.80
38428;DHT22;24211;49.980;19.776;2023-05-14T13:55:51;23.10;82.10
38428;DHT22;24211;49.980;19.776;2023-05-14T13:58:27;23.40;82.50
38428;DHT22;24211;49.980;19.776;2023-05-14T14:00:54;23.30;81.50
38428;DHT22;24211;49.980;19.776;2023-05-14T14:03:22;23.90;82.50
38428;DHT22;24211;49.980;19.776;2023-05-14T14:05:49;23.40;81.10
38428;DHT22;24211;49.980;19.776;2023-05-14T14:08:18;23.00;82.70
38428;DHT22;24211;49.980;19.776;2023-05-14T14:10:51;23.20;83.80
38428;DHT22;24211;49.980;19.776;2023-05-14T14:13:20;23.40;83.80
38428;DHT22;24211;49.980;19.776;2023-05-14T14:15:48;23.40;81.80
38428;DHT22;24211;49.980;19.776;2023-05-14T14:18:16;23.00;83.10
38428;DHT22;24211;49.980;19.776;2023-05-14T14:20:43;22.70;82.10
38428;DHT22;24211;49.980;19.776;2023-05-14T14:23:11;22.50;82.80
38428;DHT22;24211;49.980;19.776;2023-05-14T14:25:38;22.10;83.90
38428;DHT22;24211;49.980;19.776;2023-05-14T14:28:05;22.10;83.50
38428;DHT22;24211;49.980;19.776;2023-05-14T14:30:32;22.40;84.30
38428;DHT22;24211;49.980;19.776;2023-05-14T14:33:00;22.10;84.30
38428;DHT22;24211;49.980;19.776;2023-05-14T14:35:27;22.20;84.10
38428;DHT22;24211;49.980;19.776;2023-05-14T14:37:54;22.10;84.40
38428;DHT22;24211;49.980;19.776;2023-05-14T14:40:21;22.10;84.20
38428;DHT22;24211;49.980;19.776;2023-05-14T14:42:50;22.10;83.30
38428;DHT22;24211;49.980;19.776;2023-05-14T14:45:17;21.90;84.80
38428;DHT22;24211;49.980;19.776;2023-05-14T14:47:45;21.60;84.50
38428;DHT22;24211;49.980;19.776;2023-05-14T14:50:12;21.80;85.40
38428;DHT22;24211;49.980;19.776;2023-05-14T14:52:41;22.10;84.70
38428;DHT22;24211;49.980;19.776;2023-05-14T14:55:12;21.80;84.10
38428;DHT22;24211;49.980;19.776;2023-05-14T14:57:39;21.80;84.00
38428;DHT22;24211;49.980;19.776;2023-05-14T15:00:06;22.00;85.20
38428;DHT22;24211;49.980;19.776;2023-05-14T15:02:35;22.00;84.30
38428;DHT22;24211;49.980;19.776;2023-05-14T15:05:08;21.70;84.80
38428;DHT22;24211;49.980;19.776;2023-05-14T15:07:35;21.60;85.80
38428;DHT22;24211;49.980;19.776;2023-05-14T15:10:02;21.80;84.90
38428;DHT22;24211;49.980;19.776;2023-05-14T15:12:30;21.90;85.00
38428;DHT22;24211;49.980;19.776;2023-05-14T15:14:57;21.80;84.10
38428;DHT22;24211;49.980;19.776;2023-05-14T15:17:24;21.90;84.10
38428;DHT22;24211;49.980;19.776;2023-05-14T15:19:52;21.90;84.80
38428;DHT22;24211;49.980;19.776;2023-05-14T15:22:19;22.00;84.90
38428;DHT22;24211;49.980;19.776;2023-05-14T15:24:47;22.00;84.80
38428;DHT22;24211;49.980;19.776;2023-05-14T15:27:14;21.80;84.50
38428;DHT22;24211;49.980;19.776;2023-05-14T15:29:41;21.80;84.80